Weather at Niort-Souché Airport

Public forecast

Using degrees Celsius for public forecast. Weather courtesy of forecast.io.

Closest aviation weather report (METAR) to Niort-Souché Airport

Closest report is Poitiers-Biard Airport, 33.4 nm (61.8 km) ENE. Retrieved 2021/10/15 23:30 UTC (22 minutes ago):

LFBI 152330Z AUTO VRB03KT CAVOK 06/04 Q1020 TEMPO 3000 BR

Closest aviation forecast (TAF) to Niort-Souché Airport

Closest forecast is Poitiers-Biard Airport, 33.4 nm (61.8 km) ENE. Retrieved 2021/10/15 18:53 UTC (5 hours ago):

TAF LFBI 151700Z 1518/1618 02007KT CAVOK TEMPO 1600/1608 3000 BR PROB30 TEMPO 1602/1607 0800 FG VV///